Time;durP1;ratioP1;P1;durP2;ratioP2;P2;SDS_P1;SDS_P2;PMS_P1;PMS_P2;Temp;Humidity;BMP_temperature;BMP_pressure;BME280_temperature;BME280_humidity;BME280_pressure;Samples;Min_cycle;Max_cycle;Signal;HPM_P1;HPM_P2
2021/11/16 08:50:32;;;;;;;92.97;37.03;;;281.80;1971.20;;;;;;4910342;24;20051;-86
2021/11/16 09:04:54;;;;;;;49.95;25.58;;;358.80;1561.60;;;;;;4960857;24;20213;-87
2021/11/16 09:07:30;;;;;;;44.90;15.63;;;358.80;1561.60;;;;;;4735742;30;20561;-93
2021/11/16 09:10:37;;;;;;;53.42;24.23;;;359.00;1510.40;;;;;;4845090;24;20421;-94
2021/11/16 09:16:43;;;;;;;28.73;15.60;;;409.70;1408.00;;;;;;4790083;30;20050;-87
2021/11/16 09:32:15;;;;;;;20.52;12.68;;;;;;;;;;5129727;24;20066;-85
2021/11/16 09:35:30;;;;;;;37.95;20.17;;;512.50;1049.60;;;;;;4787423;30;20058;-84
2021/11/16 09:41:53;;;;;;;22.85;11.77;;;589.20;947.20;;;;;;4973265;24;20086;-94
2021/11/16 09:44:25;;;;;;;18.80;13.25;;;538.40;972.80;;;;;;4794667;30;20560;-91
2021/11/16 09:46:59;;;;;;;32.08;14.15;;;512.50;998.40;;;;;;4796886;29;20083;-93
2021/11/16 09:49:38;;;;;;;28.83;12.45;;;563.20;998.40;;;;;;4793712;30;20035;-96
2021/11/16 09:52:06;;;;;;;20.38;11.60;;;589.10;896.00;;;;;;4793799;30;20043;-94
2021/11/16 09:54:46;;;;;;;19.67;11.77;;;614.80;844.80;;;;;;4796910;30;20486;-92
2021/11/16 09:57:14;;;;;;;22.27;13.45;;;640.10;793.60;;;;;;4792909;29;20011;-92
2021/11/16 09:59:42;;;;;;;30.60;18.40;;;665.80;768.00;;;;;;4792556;29;20067;-91
2021/11/16 10:02:36;;;;;;;20.90;12.75;;;666.40;768.00;;;;;;4784330;30;20031;-92
2021/11/16 10:05:19;;;;;;;26.65;14.13;;;640.80;768.00;;;;;;4795886;30;20146;-96
2021/11/16 10:08:06;;;;;;;22.27;14.02;;;589.60;870.40;;;;;;4791010;30;20035;-93
2021/11/16 10:10:37;;;;;;;27.48;16.13;;;563.30;921.60;;;;;;4787835;30;20084;-90
2021/11/16 10:13:09;;;;;;;28.75;18.17;;;537.70;998.40;;;;;;4789818;30;20031;-96
2021/11/16 10:15:43;;;;;;;22.50;12.15;;;512.30;1024.00;;;;;;4789242;30;20502;-96
2021/11/16 10:18:11;;;;;;;30.58;17.98;;;487.00;1049.60;;;;;;4790066;30;20065;-96
2021/11/16 10:20:39;;;;;;;24.88;15.75;;;;;;;;;;4790861;30;20031;-91
2021/11/16 10:23:09;;;;;;;17.98;11.43;;;486.40;1100.80;;;;;;4791856;30;20028;-85
2021/11/16 10:25:39;;;;;;;22.23;12.32;;;486.50;1100.80;;;;;;4788970;30;20066;-91
2021/11/16 10:28:11;;;;;;;18.77;13.35;;;486.70;1075.20;;;;;;4788443;30;20085;-93
2021/11/16 10:30:39;;;;;;;20.50;12.60;;;487.20;1049.60;;;;;;4772965;30;20038;-90
2021/11/16 10:33:21;;;;;;;15.05;11.10;;;512.40;1024.00;;;;;;4772491;30;20118;-90
2021/11/16 10:35:50;;;;;;;18.13;10.30;;;486.60;1075.20;;;;;;4772341;30;20059;-89
2021/11/16 10:38:20;;;;;;;15.93;10.65;;;512.40;998.40;;;;;;4772858;30;20061;-88
2021/11/16 10:40:46;;;;;;;17.40;10.90;;;487.20;1024.00;;;;;;4772856;30;20031;-89
2021/11/16 10:43:12;;;;;;;20.33;11.00;;;512.20;998.40;;;;;;4791923;30;20063;-90
2021/11/16 10:45:45;;;;;;;21.60;12.20;;;512.20;998.40;;;;;;4776130;30;20054;-92
2021/11/16 10:48:14;;;;;;;20.52;13.18;;;512.80;998.40;;;;;;4775871;30;20019;-92
2021/11/16 10:50:43;;;;;;;18.10;11.88;;;486.80;1075.20;;;;;;4776027;30;20035;-90
2021/11/16 10:53:18;;;;;;;20.58;12.82;;;435.80;1177.60;;;;;;4776338;30;20028;-91
2021/11/16 10:55:48;;;;;;;18.73;12.50;;;435.20;1228.80;;;;;;4777059;30;20028;-90
2021/11/16 10:58:17;;;;;;;18.65;12.70;;;410.50;1228.80;;;;;;4776409;30;20077;-89
2021/11/16 11:00:47;;;;;;;17.77;12.35;;;410.30;1228.80;;;;;;4775644;30;20066;-89
2021/11/16 11:03:30;;;;;;;18.58;12.90;;;409.60;1305.60;;;;;;4776120;30;20023;-93
2021/11/16 11:06:00;;;;;;;20.42;12.02;;;384.90;1280.00;;;;;;4773846;30;20027;-93
2021/11/16 11:08:35;;;;;;;22.15;15.18;;;384.80;1331.20;;;;;;4775139;30;20031;-91
2021/11/16 11:11:03;;;;;;;21.52;15.07;;;384.70;1356.80;;;;;;4775205;30;20031;-93
2021/11/16 11:13:30;;;;;;;21.98;15.60;;;384.40;1382.40;;;;;;4775549;30;20453;-89
2021/11/16 11:15:57;;;;;;;20.45;13.48;;;384.30;1382.40;;;;;;4775063;30;20062;-96
2021/11/16 11:18:40;;;;;;;19.40;14.32;;;384.70;1408.00;;;;;;4777540;30;20035;-94
2021/11/16 11:21:23;;;;;;;23.23;13.13;;;384.00;1382.40;;;;;;4778387;30;20050;-93
2021/11/16 11:23:53;;;;;;;25.10;15.15;;;359.10;1382.40;;;;;;4795593;30;20027;-92
2021/11/16 11:26:50;;;;;;;24.50;15.70;;;359.00;1408.00;;;;;;4777833;30;20092;-92
2021/11/16 11:29:26;;;;;;;27.02;16.10;;;358.90;1408.00;;;;;;4780669;30;20067;-91
2021/11/16 11:32:03;;;;;;;20.27;13.75;;;359.00;1433.60;;;;;;4779771;30;20035;-92
2021/11/16 11:35:03;;;;;;;19.75;14.18;;;358.90;1433.60;;;;;;4780046;30;20065;-92
2021/11/16 11:37:42;;;;;;;26.48;16.27;;;358.90;1459.20;;;;;;4781773;30;20027;-93
2021/11/16 11:40:39;;;;;;;25.80;15.38;;;359.10;1433.60;;;;;;4778607;30;20092;-94
2021/11/16 11:43:21;;;;;;;22.10;13.27;;;358.90;1433.60;;;;;;4799313;30;20082;-92
2021/11/16 11:45:49;;;;;;;23.23;15.52;;;358.80;1459.20;;;;;;4783824;30;20129;-94
2021/11/16 11:48:25;;;;;;;22.30;14.15;;;358.80;1459.20;;;;;;4782413;24;20055;-85
2021/11/16 11:51:00;;;;;;;16.92;13.07;;;358.90;1433.60;;;;;;4774406;30;20035;-86
2021/11/16 11:53:31;;;;;;;22.63;13.93;;;358.90;1459.20;;;;;;4757859;30;20035;-86
2021/11/16 11:56:00;;;;;;;52.58;33.08;;;358.90;1433.60;;;;;;4773319;30;20058;-87
2021/11/16 11:58:34;;;;;;;65.32;36.60;;;359.00;1433.60;;;;;;4772893;30;20100;-91
2021/11/16 12:01:07;;;;;;;;;;;359.30;1408.00;;;;;;4742749;30;20036;-92
2021/11/16 12:03:41;;;;;;;54.63;30.33;;;410.00;1331.20;;;;;;4754760;30;19913;-85
2021/11/16 12:06:08;;;;;;;36.55;24.60;;;410.00;1331.20;;;;;;4777184;30;20039;-89
2021/11/16 12:08:34;;;;;;;27.98;18.58;;;409.60;1356.80;;;;;;4761808;30;20497;-88
2021/11/16 12:11:01;;;;;;;24.20;16.38;;;384.80;1331.20;;;;;;4774281;30;20032;-89
2021/11/16 12:13:31;;;;;;;30.20;19.50;;;410.30;1280.00;;;;;;4774813;30;20497;-91
2021/11/16 12:16:12;;;;;;;25.25;16.80;;;410.00;1305.60;;;;;;4772786;30;20032;-90
2021/11/16 12:18:45;;;;;;;22.58;15.48;;;410.30;1280.00;;;;;;4774213;30;20043;-87
2021/11/16 12:21:27;;;;;;;21.90;16.13;;;461.00;1228.80;;;;;;4774888;30;20066;-88
2021/11/16 12:23:58;;;;;;;25.55;18.23;;;461.20;1203.20;;;;;;4776892;30;20103;-87
2021/11/16 12:26:27;;;;;;;28.65;17.35;;;461.60;1177.60;;;;;;4776806;30;20036;-86
2021/11/16 12:29:19;;;;;;;27.98;16.63;;;487.20;1100.80;;;;;;4776151;30;20554;-88
2021/11/16 12:31:47;;;;;;;22.48;16.10;;;537.70;1049.60;;;;;;4776523;30;20554;-88
2021/11/16 12:34:34;;;;;;;25.52;16.95;;;614.90;844.80;;;;;;4761079;30;20111;-85
2021/11/16 12:37:01;;;;;;;29.80;18.70;;;640.10;870.40;;;;;;4749994;30;20031;-86
2021/11/16 12:39:28;;;;;;;32.92;21.00;;;666.10;768.00;;;;;;4774804;30;20036;-84
2021/11/16 12:42:08;;;;;;;29.45;18.40;;;666.10;768.00;;;;;;4773245;30;20035;-85
2021/11/16 12:44:42;;;;;;;43.63;28.45;;;589.50;844.80;;;;;;4765817;30;20039;-89
2021/11/16 12:47:11;;;;;;;25.13;18.23;;;614.60;793.60;;;;;;4774654;30;20165;-88
2021/11/16 12:49:40;;;;;;;31.70;17.98;;;589.20;870.40;;;;;;4773602;30;20501;-89
2021/11/16 12:52:09;;;;;;;26.83;17.45;;;538.20;921.60;;;;;;4777421;30;20122;-85
2021/11/16 12:54:36;;;;;;;23.63;16.90;;;512.60;998.40;;;;;;4759901;30;20058;-86
2021/11/16 12:57:13;;;;;;;23.38;16.75;;;537.60;972.80;;;;;;4774542;30;20032;-86
2021/11/16 12:59:45;;;;;;;27.40;18.60;;;537.70;972.80;;;;;;4776557;30;20044;-90
2021/11/16 13:02:34;;;;;;;26.77;17.75;;;537.60;998.40;;;;;;4775268;30;20027;-84
2021/11/16 13:05:10;;;;;;;23.25;16.65;;;512.60;972.80;;;;;;4775142;30;20039;-85
2021/11/16 13:07:39;;;;;;;27.15;17.55;;;563.50;947.20;;;;;;4760614;30;20036;-87
2021/11/16 13:10:11;;;;;;;24.67;17.48;;;589.70;844.80;;;;;;4777725;30;20031;-82
2021/11/16 13:12:55;;;;;;;21.83;16.08;;;640.10;793.60;;;;;;4777488;30;20050;-87
2021/11/16 13:15:28;;;;;;;19.00;15.25;;;640.70;742.40;;;;;;4779190;30;20047;-83
2021/11/16 13:18:11;;;;;;;24.33;16.58;;;640.60;742.40;;;;;;4778565;30;20103;-85
2021/11/16 13:20:39;;;;;;;26.60;16.73;;;665.70;768.00;;;;;;4777435;30;20093;-83
2021/11/16 13:23:14;;;;;;;19.88;15.88;;;666.00;768.00;;;;;;4777516;30;20036;-83
2021/11/16 13:25:59;;;;;;;23.00;16.27;;;665.60;768.00;;;;;;4778223;30;20027;-83
2021/11/16 13:28:54;;;;;;;22.33;16.83;;;640.60;716.80;;;;;;4763192;30;20028;-83
2021/11/16 13:31:17;;;;;;;20.73;15.55;;;640.20;742.40;;;;;;4776386;30;20040;-86
2021/11/16 13:34:30;;;;;;;24.23;16.30;;;614.90;768.00;;;;;;4780415;30;20167;-83
2021/11/16 13:37:07;;;;;;;26.23;18.35;;;615.30;768.00;;;;;;4768657;30;20060;-87
2021/11/16 13:39:36;;;;;;;31.85;20.48;;;640.20;742.40;;;;;;4776182;30;20071;-83
2021/11/16 13:42:22;;;;;;;22.27;18.23;;;615.20;742.40;;;;;;4763313;30;20043;-86
2021/11/16 13:44:56;;;;;;;31.08;21.83;;;614.90;768.00;;;;;;4770077;30;20031;-85
2021/11/16 13:47:34;;;;;;;32.25;22.60;;;614.40;793.60;;;;;;4771212;30;20032;-85
2021/11/16 13:50:05;;;;;;;27.45;22.85;;;589.30;844.80;;;;;;4771229;30;20035;-84
2021/11/16 13:52:52;;;;;;;35.78;27.60;;;588.80;870.40;;;;;;4770251;30;20057;-84
2021/11/16 13:55:28;;;;;;;30.95;21.17;;;563.80;870.40;;;;;;4759070;30;20055;-83
2021/11/16 13:58:13;;;;;;;36.95;21.55;;;563.20;921.60;;;;;;4773324;30;20035;-83
2021/11/16 14:00:41;;;;;;;28.25;20.25;;;;;;;;;;4774381;30;20074;-88
2021/11/16 14:03:13;;;;;;;25.48;19.98;;;537.60;947.20;;;;;;4774283;30;20031;-87
2021/11/16 14:05:49;;;;;;;45.42;33.25;;;486.90;1049.60;;;;;;4774569;30;20032;-85
2021/11/16 14:08:17;;;;;;;34.35;25.95;;;436.10;1152.00;;;;;;4772061;30;20032;-87
2021/11/16 14:10:58;;;;;;;40.45;25.77;;;410.00;1254.40;;;;;;4772582;30;20028;-86
2021/11/16 14:13:35;;;;;;;37.05;27.30;;;384.30;1305.60;;;;;;4772457;30;20032;-88
2021/11/16 14:16:07;;;;;;;59.58;41.80;;;359.00;1382.40;;;;;;4773224;30;20040;-87
2021/11/16 14:18:34;;;;;;;60.45;44.65;;;358.50;1408.00;;;;;;4775798;30;20036;-89
2021/11/16 14:21:19;;;;;;;52.80;41.33;;;333.60;1459.20;;;;;;4775915;30;20043;-86
2021/11/16 14:23:49;;;;;;;37.60;24.13;;;333.40;1484.80;;;;;;4774418;30;20063;-89
2021/11/16 14:26:21;;;;;;;57.88;32.83;;;333.30;1510.40;;;;;;4774833;30;20374;-87
2021/11/16 14:28:47;;;;;;;55.47;33.17;;;333.00;1536.00;;;;;;4774248;30;20083;-90
2021/11/16 14:31:23;;;;;;;62.83;39.35;;;332.80;1536.00;;;;;;4776707;30;20044;-89
2021/11/16 14:33:53;;;;;;;59.22;30.92;;;308.10;1536.00;;;;;;4762358;30;20478;-88
2021/11/16 14:36:36;;;;;;;47.45;29.45;;;307.90;1561.60;;;;;;4775976;30;20035;-89
2021/11/16 14:39:10;;;;;;;71.03;41.63;;;307.70;1587.20;;;;;;4775227;30;20140;-91
2021/11/16 14:41:42;;;;;;;34.28;24.65;;;307.70;1612.80;;;;;;4774096;30;20036;-90
2021/11/16 14:44:11;;;;;;;38.40;27.42;;;307.40;1638.40;;;;;;4773304;30;20116;-91
2021/11/16 14:46:37;;;;;;;39.40;27.90;;;307.30;1664.00;;;;;;4772462;30;20035;-86
2021/11/16 14:49:06;;;;;;;40.13;28.15;;;307.20;1689.60;;;;;;4772851;30;20099;-85
2021/11/16 14:51:35;;;;;;;42.70;22.85;;;282.50;1664.00;;;;;;4772584;30;20034;-91
2021/11/16 14:54:13;;;;;;;33.13;23.73;;;282.40;1689.60;;;;;;4773041;30;20493;-91
2021/11/16 14:56:44;;;;;;;39.47;24.98;;;282.40;1689.60;;;;;;4771583;30;20027;-86
2021/11/16 14:59:21;;;;;;;38.75;25.35;;;282.30;1715.20;;;;;;4758216;30;20044;-85
2021/11/16 15:01:52;;;;;;;49.65;32.53;;;282.20;1715.20;;;;;;4772430;30;20035;-87
2021/11/16 15:04:24;;;;;;;44.83;27.10;;;282.10;1740.80;;;;;;4773319;30;20031;-86
2021/11/16 15:06:59;;;;;;;57.65;34.08;;;282.00;1766.40;;;;;;4774768;30;20031;-86
2021/11/16 15:09:26;;;;;;;77.00;47.97;;;281.90;1766.40;;;;;;4787842;30;20027;-86
2021/11/16 15:11:54;;;;;;;74.72;44.42;;;281.80;1792.00;;;;;;4788542;30;20496;-87
2021/11/16 15:14:25;;;;;;;63.22;39.78;;;281.70;1817.60;;;;;;4791328;30;20055;-86
2021/11/16 15:16:57;;;;;;;59.75;37.20;;;281.60;1817.60;;;;;;4791597;30;20030;-89
2021/11/16 15:19:28;;;;;;;57.30;37.03;;;256.90;1792.00;;;;;;4795284;30;20042;-86
2021/11/16 15:22:08;;;;;;;83.88;54.35;;;256.80;1817.60;;;;;;4796850;29;20393;-87
2021/11/16 15:27:26;;;;;;;55.25;36.75;;;256.60;1843.20;;;;;;4784837;30;20038;-84
2021/11/16 15:30:22;;;;;;;71.18;42.20;;;256.50;1843.20;;;;;;4794868;30;20028;-83
2021/11/16 15:33:43;;;;;;;103.10;58.78;;;256.40;1868.80;;;;;;4795147;29;20031;-83
2021/11/16 15:36:13;;;;;;;175.65;84.75;;;256.40;1868.80;;;;;;4758486;30;20522;-82
2021/11/16 15:38:51;;;;;;;73.20;41.92;;;256.20;1868.80;;;;;;4758154;30;20136;-82
2021/11/16 19:49:57;;;;;;;58.63;37.65;;;179.80;2252.80;;;;;;5055803;24;20446;-91
2021/11/16 19:52:25;;;;;;;64.55;37.55;;;179.70;2252.80;;;;;;4794341;29;20438;-87
2021/11/16 19:54:52;;;;;;;60.28;37.25;;;179.70;2252.80;;;;;;4793311;29;20469;-88
2021/11/16 19:57:18;;;;;;;61.30;36.08;;;179.70;2252.80;;;;;;4793174;29;20039;-89
2021/11/16 19:59:45;;;;;;;63.10;37.45;;;179.70;2252.80;;;;;;4793186;29;20061;-92
2021/11/16 20:02:13;;;;;;;58.92;37.05;;;179.80;2252.80;;;;;;4793453;29;20350;-94
2021/11/16 20:04:40;;;;;;;55.05;36.72;;;179.80;2252.80;;;;;;4793029;29;20465;-93
2021/11/16 20:07:07;;;;;;;55.92;36.95;;;179.80;2252.80;;;;;;4792994;29;20023;-91
2021/11/16 20:09:34;;;;;;;61.17;37.08;;;179.70;2252.80;;;;;;4793084;29;20377;-94
2021/11/16 20:12:09;;;;;;;54.42;37.30;;;179.80;2252.80;;;;;;4792975;29;20469;-93
2021/11/16 20:14:35;;;;;;;57.50;36.92;;;179.70;2252.80;;;;;;4793135;29;20533;-92
2021/11/16 20:17:02;;;;;;;59.22;38.05;;;179.70;2252.80;;;;;;4792783;29;20384;-93
2021/11/16 20:19:29;;;;;;;60.85;34.80;;;179.70;2252.80;;;;;;4793392;29;20418;-93
2021/11/16 20:21:55;;;;;;;60.25;39.00;;;179.70;2252.80;;;;;;4792802;29;20358;-92
2021/11/16 20:24:21;;;;;;;61.92;40.05;;;179.70;2252.80;;;;;;4793287;29;20364;-92
2021/11/16 20:26:50;;;;;;;67.32;39.17;;;179.60;2252.80;;;;;;4792760;29;20440;-93
2021/11/16 20:29:40;;;;;;;65.18;38.83;;;179.60;2252.80;;;;;;4792773;29;20429;-92
2021/11/16 20:32:10;;;;;;;69.10;39.13;;;179.60;2252.80;;;;;;4808298;29;20073;-93
2021/11/16 20:37:23;;;;;;;88.57;50.40;;;179.60;2252.80;;;;;;4809120;29;20045;-92
2021/11/16 20:40:04;;;;;;;102.55;56.30;;;179.50;2252.80;;;;;;4792365;29;20050;-91
2021/11/16 20:59:12;;;;;;;69.55;42.88;;;179.50;2252.80;;;;;;4808279;29;20483;-92
2021/11/16 21:01:36;;;;;;;66.55;41.15;;;179.40;2252.80;;;;;;4790559;30;20042;-92
2021/11/16 21:04:03;;;;;;;69.82;41.10;;;179.40;2252.80;;;;;;4774053;30;20434;-93
2021/11/16 21:06:29;;;;;;;59.42;36.58;;;179.30;2252.80;;;;;;4774141;30;20355;-93
2021/11/16 21:08:56;;;;;;;58.47;35.90;;;179.40;2252.80;;;;;;4773935;30;20385;-93
2021/11/16 21:11:22;;;;;;;56.90;35.70;;;179.30;2252.80;;;;;;4773980;30;20355;-93
2021/11/16 21:13:48;;;;;;;55.83;32.55;;;179.40;2252.80;;;;;;4773889;30;20381;-93
2021/11/16 21:16:14;;;;;;;59.60;33.00;;;179.30;2252.80;;;;;;4773830;30;20541;-93
2021/11/16 21:18:43;;;;;;;52.13;33.92;;;179.30;2252.80;;;;;;4773720;30;20384;-92
2021/11/16 21:21:12;;;;;;;56.55;33.80;;;179.30;2252.80;;;;;;4773844;30;20043;-93
2021/11/16 21:23:40;;;;;;;51.83;32.20;;;179.30;2252.80;;;;;;4773816;30;20491;-94
2021/11/16 21:26:07;;;;;;;54.65;33.42;;;179.30;2252.80;;;;;;4773324;30;20525;-93
2021/11/16 21:28:33;;;;;;;55.58;33.40;;;179.30;2252.80;;;;;;4789923;30;20401;-93
2021/11/16 21:31:00;;;;;;;54.70;33.90;;;179.20;2252.80;;;;;;4773685;30;20386;-93
2021/11/16 21:33:27;;;;;;;50.55;31.13;;;179.20;2252.80;;;;;;4773914;30;20542;-93
2021/11/16 21:35:53;;;;;;;59.40;33.80;;;179.20;2252.80;;;;;;4773825;30;20454;-92
2021/11/16 21:38:20;;;;;;;61.35;35.33;;;179.20;2252.80;;;;;;4773645;30;20055;-92
2021/11/16 21:40:47;;;;;;;58.85;33.72;;;154.50;2252.80;;;;;;4773503;30;20448;-92
2021/11/16 21:43:18;;;;;;;50.47;33.92;;;179.20;2252.80;;;;;;4773415;30;20035;-93
2021/11/16 21:45:44;;;;;;;54.67;34.05;;;154.50;2252.80;;;;;;4773620;30;20484;-92
2021/11/16 21:48:11;;;;;;;53.58;32.50;;;179.20;2252.80;;;;;;4773405;30;20487;-92
2021/11/16 21:50:37;;;;;;;53.88;32.30;;;154.50;2252.80;;;;;;4773373;30;20381;-92
2021/11/16 21:56:26;;;;;;;55.38;32.75;;;179.20;2252.80;;;;;;4789318;30;20034;-93
2021/11/16 21:58:52;;;;;;;53.85;33.22;;;154.50;2252.80;;;;;;4773333;30;20377;-93
2021/11/16 22:01:18;;;;;;;58.75;34.70;;;154.50;2252.80;;;;;;4773600;30;20450;-92
2021/11/16 22:03:45;;;;;;;57.45;32.38;;;154.40;2252.80;;;;;;4773337;30;20367;-94
2021/11/16 22:06:20;;;;;;;53.33;31.55;;;154.40;2252.80;;;;;;4773348;30;20369;-94
2021/11/16 22:08:49;;;;;;;53.20;31.55;;;154.40;2252.80;;;;;;4773161;30;20539;-94
2021/11/16 22:13:47;;;;;;;51.83;31.55;;;154.40;2252.80;;;;;;4789434;30;20473;-95
2021/11/16 22:16:20;;;;;;;52.25;32.22;;;154.40;2252.80;;;;;;4773296;30;20047;-93
2021/11/16 22:18:47;;;;;;;55.83;32.63;;;154.30;2252.80;;;;;;4773100;30;20459;-94
2021/11/16 22:21:13;;;;;;;55.88;32.35;;;179.30;2252.80;;;;;;4772990;30;20130;-93
2021/11/16 22:23:39;;;;;;;49.08;31.67;;;154.30;2252.80;;;;;;4773082;30;20504;-93
2021/11/16 22:26:05;;;;;;;58.75;33.92;;;154.30;2252.80;;;;;;4773203;30;20473;-94
2021/11/16 22:28:32;;;;;;;54.78;33.38;;;154.30;2252.80;;;;;;4773237;30;20362;-93
2021/11/16 22:30:58;;;;;;;50.28;31.17;;;154.30;2252.80;;;;;;4773240;30;20470;-94
2021/11/16 22:33:27;;;;;;;54.90;32.83;;;154.30;2252.80;;;;;;4773153;30;20062;-94
2021/11/16 22:35:54;;;;;;;58.90;33.15;;;154.30;2252.80;;;;;;4773077;29;20487;-93
2021/11/16 22:38:20;;;;;;;56.72;32.22;;;154.30;2252.80;;;;;;4775356;30;20385;-92
2021/11/16 22:40:46;;;;;;;58.67;32.58;;;154.30;2252.80;;;;;;4776643;30;20405;-93
2021/11/16 22:43:13;;;;;;;54.05;31.27;;;154.30;2252.80;;;;;;4776864;30;20492;-93
2021/11/16 22:45:39;;;;;;;52.03;32.38;;;154.30;2252.80;;;;;;4776416;30;20485;-94
2021/11/16 22:48:06;;;;;;;55.95;32.28;;;154.30;2252.80;;;;;;4776447;30;20382;-95
2021/11/16 22:50:33;;;;;;;58.78;32.55;;;154.30;2252.80;;;;;;4776147;30;20550;-95
2021/11/16 22:53:00;;;;;;;55.15;33.58;;;154.30;2252.80;;;;;;4776338;30;20381;-94
2021/11/16 22:55:26;;;;;;;56.97;34.05;;;154.30;2252.80;;;;;;4776454;30;20557;-93
2021/11/16 22:57:53;;;;;;;54.53;33.38;;;154.30;2252.80;;;;;;4776144;30;20465;-93
